Leesburg, VA

5:08 PM EDT on September 27, 2016 (GMT -0400)
Leesburg Executive

Weather History for KJYO - February, 2014

Change the Weather History Date:

Monday, February 24, 2014

  Actual Average (KIAD) Record (KIAD)
Temperature  
Mean Temperature 37 °F 38 °F  
Max Temperature 42 °F 48 °F 79 °F (1985)
Min Temperature 30 °F 27 °F -4 °F (2015)
Degree Days  
Heating Degree Days 28 27  
Month to date heating degree days 675  
Since 1 July heating degree days 3459  
Cooling Degree Days 0 0  
Month to date cooling degree days 0  
Year to date cooling degree days 0  
Moisture  
Dew Point 19 °F    
Average Humidity 50    
Maximum Humidity 93    
Minimum Humidity 31    
Precipitation  
Precipitation 0.00 in 0.10 in 1.52 in (1979)
Month to date precipitation 2.26  
Year to date precipitation 4.94  
Snow  
Snow 0.00 in 0.20 in 8.90 in (1987)
Month to date snowfall 6.6  
Since 1 July snowfall 17.9  
Snow Depth -    
Sea Level Pressure  
Sea Level Pressure 30.04 in    
Wind  
Wind Speed 12 mph (NW)    
Max Wind Speed 26 mph    
Max Gust Speed 39 mph    
Visibility 10 miles    
Events Rain    
T = Trace of Precipitation, MM = Missing Value Source: NWS Daily Summary

Daily Weather History Graph

Daily Weather History Graph

Search for Another Location

Airport or City:

Trip Planner

Search our weather history database for the weather conditions in past years. The results will help you decide how hot, cold, wet, or windy it might be!

Date:

Astronomy

Feb. 24, 2014 Rise Set
Actual Time 6:49 AM EST 5:57 PM EST
Civil Twilight 6:22 AM EST 6:24 PM EST
Nautical Twilight 5:51 AM EST 6:55 PM EST
Astronomical Twilight 5:21 AM EST 7:26 PM EST
Moon 2:45 AM EST (2/24) 12:57 PM EST (2/24)
Length of Visible Light 12h 01m
Length of Day
11h 07m
Waning Crescent, 28% of the Moon is Illuminated
Feb 24
Waning Crescent
Mar 1
New
Mar 8
First Quarter
Mar 16
Full
Mar 23
Last Quarter

Hourly Weather History & Observations

Time (EST) Temp. Windchill Dew Point Humidity Pressure Visibility Wind Dir Wind Speed Gust Speed Precip Events Conditions
12:15 AM 41.0 °F 38.0 °F 35.6 °F 81% 29.95 in 10.0 mi NNW 4.6 mph - N/A Rain Light Rain
12:35 AM 39.2 °F - 37.4 °F 93% 29.95 in 10.0 mi Calm Calm - N/A   Overcast
12:55 AM 41.0 °F 35.8 °F 35.6 °F 81% 29.94 in 10.0 mi NNW 8.1 mph - N/A   Overcast
1:15 AM 41.0 °F 35.8 °F 35.6 °F 81% 29.94 in 10.0 mi NNW 8.1 mph - N/A   Overcast
1:35 AM 41.0 °F 35.2 °F 33.8 °F 76% 29.95 in 10.0 mi NNW 9.2 mph 18.4 mph N/A   Overcast
1:55 AM 41.0 °F 34.7 °F 33.8 °F 76% 29.95 in 10.0 mi NW 10.4 mph 17.3 mph N/A   Overcast
2:15 AM 41.0 °F 33.5 °F 33.8 °F 76% 29.95 in 10.0 mi NW 13.8 mph 20.7 mph N/A   Overcast
2:35 AM 41.0 °F 33.1 °F 32.0 °F 70% 29.95 in 10.0 mi NW 15.0 mph 21.9 mph N/A   Scattered Clouds
2:55 AM 39.2 °F 31.2 °F 30.2 °F 70% 29.95 in 10.0 mi NW 13.8 mph 24.2 mph N/A   Clear
3:15 AM 37.4 °F 29.3 °F 26.6 °F 65% 29.96 in 10.0 mi WNW 12.7 mph 19.6 mph N/A   Clear
3:35 AM 37.4 °F 28.2 °F 26.6 °F 65% 29.96 in 10.0 mi NW 16.1 mph 27.6 mph N/A   Clear
3:55 AM 37.4 °F 29.3 °F 23.0 °F 56% 29.97 in 10.0 mi WNW 12.7 mph 28.8 mph N/A   Clear
4:15 AM 37.4 °F 32.1 °F 23.0 °F 56% 29.96 in 10.0 mi NW 6.9 mph 17.3 mph N/A   Clear
4:35 AM 35.6 °F 31.7 °F 24.8 °F 65% 29.97 in 10.0 mi NW 4.6 mph 21.9 mph N/A   Clear
4:55 AM 35.6 °F 27.5 °F 26.6 °F 70% 29.97 in 10.0 mi WNW 11.5 mph 20.7 mph N/A   Clear
5:15 AM 35.6 °F 29.2 °F 26.6 °F 70% 29.97 in 10.0 mi NW 8.1 mph - N/A   Clear
5:35 AM 35.6 °F 27.1 °F 26.6 °F 70% 29.97 in 10.0 mi NW 12.7 mph 25.3 mph N/A   Clear
5:55 AM 35.6 °F 26.2 °F 23.0 °F 60% 29.98 in 10.0 mi NW 15.0 mph 25.3 mph N/A   Clear
6:15 AM 35.6 °F 25.9 °F 21.2 °F 56% 29.98 in 10.0 mi NW 16.1 mph 28.8 mph N/A   Clear
6:35 AM 33.8 °F 24.3 °F 21.2 °F 60% 29.99 in 10.0 mi NW 13.8 mph 18.4 mph N/A   Clear
6:55 AM 33.8 °F 25.3 °F 23.0 °F 65% 30.00 in 10.0 mi NNW 11.5 mph 19.6 mph N/A   Clear
7:15 AM 33.8 °F 25.8 °F 21.2 °F 60% 30.01 in 10.0 mi NNW 10.4 mph 21.9 mph N/A   Clear
7:35 AM 33.8 °F 24.3 °F 19.4 °F 56% 30.02 in 10.0 mi NW 13.8 mph 23.0 mph N/A   Clear
7:55 AM 33.8 °F 21.6 °F 19.4 °F 56% 30.02 in 10.0 mi NNW 23.0 mph 29.9 mph N/A   Clear
8:15 AM 33.8 °F 21.3 °F 17.6 °F 52% 30.03 in 10.0 mi NW 24.2 mph 32.2 mph N/A   Clear
8:35 AM 35.6 °F 23.2 °F 17.6 °F 48% 30.04 in 10.0 mi NNW 26.5 mph 34.5 mph N/A   Clear
8:55 AM 35.6 °F 24.5 °F 17.6 °F 48% 30.04 in 10.0 mi NW 20.7 mph 28.8 mph N/A   Clear
9:15 AM 35.6 °F 24.2 °F 17.6 °F 48% 30.05 in 10.0 mi NW 21.9 mph 33.4 mph N/A   Clear
9:35 AM 35.6 °F 24.5 °F 17.6 °F 48% 30.05 in 10.0 mi NNW 20.7 mph 26.5 mph N/A   Clear
9:55 AM 35.6 °F 23.7 °F 17.6 °F 48% 30.06 in 10.0 mi NW 24.2 mph 31.1 mph N/A   Clear
10:15 AM 37.4 °F 27.2 °F 17.6 °F 45% 30.06 in 10.0 mi NW 19.6 mph 28.8 mph N/A   Clear
10:30 AM 37.4 °F 27.8 °F 17.6 °F 45% 30.06 in 10.0 mi NW 17.3 mph 27.6 mph N/A   Clear
10:55 AM 39.2 °F 30.8 °F 17.6 °F 42% 30.06 in 10.0 mi WNW 15.0 mph 29.9 mph N/A   Clear
11:15 AM 39.2 °F 30.5 °F 15.8 °F 39% 30.06 in 10.0 mi WNW 16.1 mph 31.1 mph N/A   Clear
11:35 AM 41.0 °F 31.9 °F 15.8 °F 36% 30.05 in 10.0 mi NW 19.6 mph 31.1 mph N/A   Clear
11:55 AM 41.0 °F 32.2 °F 15.8 °F 36% 30.05 in 10.0 mi WNW 18.4 mph 29.9 mph N/A   Clear
12:15 PM 41.0 °F 32.2 °F 15.8 °F 36% 30.04 in 10.0 mi WNW 18.4 mph 27.6 mph N/A   Clear
12:35 PM 42.8 °F 33.8 °F 14.0 °F 31% 30.04 in 10.0 mi WNW 21.9 mph 32.2 mph N/A   Clear
12:55 PM 42.8 °F 34.5 °F 14.0 °F 31% 30.02 in 10.0 mi NW 18.4 mph 28.8 mph N/A   Clear
1:15 PM 42.8 °F 34.3 °F 14.0 °F 31% 30.02 in 10.0 mi NW 19.6 mph 31.1 mph N/A   Clear
1:35 PM 42.8 °F 33.5 °F 14.0 °F 31% 30.01 in 10.0 mi NW 23.0 mph 29.9 mph N/A   Clear
1:55 PM 42.8 °F 33.3 °F 14.0 °F 31% 30.01 in 10.0 mi WNW 24.2 mph 32.2 mph N/A   Clear
2:15 PM 42.8 °F 34.5 °F 15.8 °F 34% 30.02 in 10.0 mi NW 18.4 mph 32.2 mph N/A   Clear
2:35 PM 42.8 °F 33.5 °F 15.8 °F 34% 30.03 in 10.0 mi NW 23.0 mph 34.5 mph N/A   Clear
2:55 PM 42.8 °F 32.9 °F 14.0 °F 31% 30.03 in 10.0 mi NW 26.5 mph 39.1 mph N/A   Clear
3:15 PM 41.0 °F 31.9 °F 14.0 °F 33% 30.04 in 10.0 mi WNW 19.6 mph 36.8 mph N/A   Clear
3:35 PM 41.0 °F 31.1 °F 14.0 °F 33% 30.05 in 10.0 mi NW 23.0 mph 34.5 mph N/A   Clear
3:55 PM 41.0 °F 30.9 °F 14.0 °F 33% 30.05 in 10.0 mi NW 24.2 mph 32.2 mph N/A   Clear
4:15 PM 39.2 °F 29.3 °F 14.0 °F 36% 30.06 in 10.0 mi NW 20.7 mph 26.5 mph N/A   Clear
4:35 PM 39.2 °F 30.2 °F 14.0 °F 36% 30.07 in 10.0 mi NW 17.3 mph 31.1 mph N/A   Clear
4:55 PM 37.4 °F 28.2 °F 15.8 °F 41% 30.07 in 10.0 mi WNW 16.1 mph 21.9 mph N/A   Clear
5:15 PM 37.4 °F 27.8 °F 14.0 °F 38% 30.08 in 10.0 mi NW 17.3 mph 26.5 mph N/A   Clear
5:35 PM 37.4 °F 29.3 °F 14.0 °F 38% 30.08 in 10.0 mi NW 12.7 mph 21.9 mph N/A   Clear
5:55 PM 35.6 °F 27.1 °F 14.0 °F 41% 30.09 in 10.0 mi NW 12.7 mph 24.2 mph N/A   Clear
6:15 PM 35.6 °F 26.6 °F 14.0 °F 41% 30.10 in 10.0 mi WNW 13.8 mph 21.9 mph N/A   Clear
6:35 PM 35.6 °F 29.2 °F 14.0 °F 41% 30.11 in 10.0 mi WNW 8.1 mph - N/A   Clear
6:55 PM 33.8 °F 27.0 °F 14.0 °F 44% 30.13 in 10.0 mi WNW 8.1 mph - N/A   Clear
7:15 PM 35.6 °F 29.9 °F 14.0 °F 41% 30.13 in 10.0 mi WNW 6.9 mph - N/A   Clear
7:35 PM 33.8 °F 28.6 °F 14.0 °F 44% 30.14 in 10.0 mi WNW 5.8 mph - N/A   Clear
7:55 PM 33.8 °F 27.0 °F 14.0 °F 44% 30.14 in 10.0 mi WNW 8.1 mph - N/A   Clear
8:15 PM 33.8 °F 24.8 °F 14.0 °F 44% 30.14 in 10.0 mi NW 12.7 mph 16.1 mph N/A   Clear
8:35 PM 33.8 °F 25.8 °F 14.0 °F 44% 30.14 in 10.0 mi NW 10.4 mph - N/A   Clear
8:55 PM 33.8 °F 26.4 °F 14.0 °F 44% 30.14 in 10.0 mi WNW 9.2 mph - N/A   Clear
9:15 PM 33.8 °F 27.7 °F 14.0 °F 44% 30.14 in 10.0 mi WNW 6.9 mph - N/A   Clear
9:35 PM 33.8 °F 28.6 °F 14.0 °F 44% 30.15 in 10.0 mi West 5.8 mph - N/A   Clear
9:55 PM 32.0 °F 25.6 °F 14.0 °F 48% 30.14 in 10.0 mi WNW 6.9 mph - N/A   Clear
10:15 PM 32.0 °F - 14.0 °F 48% 30.14 in 10.0 mi North - - N/A   Clear
10:35 PM 32.0 °F - 14.0 °F 48% 30.15 in 10.0 mi North - - N/A   Clear
10:55 PM 32.0 °F 26.4 °F 14.0 °F 48% 30.14 in 10.0 mi WNW 5.8 mph - N/A   Clear
11:15 PM 32.0 °F 27.5 °F 14.0 °F 48% 30.14 in 10.0 mi WNW 4.6 mph - N/A   Clear
11:35 PM 32.0 °F - 14.0 °F 48% 30.15 in 10.0 mi Calm Calm - N/A   Clear
11:55 PM 30.2 °F 24.3 °F 14.0 °F 51% 30.14 in 10.0 mi WNW 5.8 mph - N/A   Clear